createdAt,value
2018-01-17T00:01:06.520Z,5.10
2018-01-17T00:03:34.639Z,5.00
2018-01-17T00:06:02.743Z,5.10
2018-01-17T00:08:30.880Z,5.30
2018-01-17T00:10:58.999Z,5.10
2018-01-17T00:13:27.123Z,5.20
2018-01-17T00:15:55.301Z,5.00
2018-01-17T00:18:23.403Z,5.20
2018-01-17T00:20:51.523Z,5.20
2018-01-17T00:23:20.403Z,5.10
2018-01-17T00:25:49.292Z,5.10
2018-01-17T00:28:17.391Z,5.10
2018-01-17T00:30:45.559Z,5.20
2018-01-17T00:33:13.745Z,5.20
2018-01-17T00:35:42.614Z,5.10
2018-01-17T00:38:12.107Z,5.10
2018-01-17T00:40:40.979Z,5.10
2018-01-17T00:43:09.099Z,5.00
2018-01-17T00:45:37.238Z,5.10
2018-01-17T00:48:06.383Z,4.90
2018-01-17T00:50:34.507Z,5.00
2018-01-17T00:53:02.625Z,4.80
2018-01-17T00:55:30.751Z,4.90
2018-01-17T00:57:58.931Z,5.10
2018-01-17T01:00:27.035Z,4.90
2018-01-17T01:02:55.136Z,4.90
2018-01-17T01:05:23.285Z,4.90
2018-01-17T01:07:51.520Z,4.90
2018-01-17T01:10:19.634Z,5.30
2018-01-17T01:12:47.797Z,5.00
2018-01-17T01:15:16.675Z,5.10
2018-01-17T01:17:44.779Z,5.10
2018-01-17T01:20:12.925Z,5.00
2018-01-17T01:22:41.799Z,5.30
2018-01-17T01:25:09.931Z,5.00
2018-01-17T01:27:38.093Z,5.30
2018-01-17T01:30:06.216Z,4.90
2018-01-17T01:32:34.348Z,4.60
2018-01-17T01:35:02.459Z,4.50
2018-01-17T01:37:30.627Z,4.60
2018-01-17T01:39:58.749Z,4.50
2018-01-17T01:42:26.923Z,4.50
2018-01-17T01:44:55.011Z,5.00
2018-01-17T01:47:23.135Z,4.50
2018-01-17T01:49:52.008Z,4.60
2018-01-17T01:52:20.143Z,4.80
2018-01-17T01:54:48.267Z,5.00
2018-01-17T01:57:16.843Z,4.80
2018-01-17T01:59:45.068Z,5.00
2018-01-17T02:02:13.201Z,4.80
2018-01-17T02:07:16.500Z,4.80
2018-01-17T02:09:44.631Z,5.30
2018-01-17T02:12:12.799Z,4.80
2018-01-17T02:14:40.888Z,4.80
2018-01-17T02:17:09.022Z,4.80
2018-01-17T02:19:37.128Z,4.80
2018-01-17T02:22:05.393Z,5.00
2018-01-17T02:24:33.491Z,4.80
2018-01-17T02:27:01.644Z,5.10
2018-01-17T02:29:29.763Z,4.90
2018-01-17T02:31:57.867Z,4.90
2018-01-17T02:34:26.769Z,4.80
2018-01-17T02:36:54.862Z,5.10
2018-01-17T02:39:22.991Z,4.90
2018-01-17T02:41:51.911Z,5.20
2018-01-17T02:44:20.791Z,5.30
2018-01-17T02:46:49.078Z,5.10
2018-01-17T02:49:17.935Z,5.20
2018-01-17T02:51:46.076Z,5.20
2018-01-17T02:54:14.219Z,5.10
2018-01-17T02:56:42.328Z,5.10
2018-01-17T02:59:10.440Z,5.10
2018-01-17T03:01:39.339Z,5.40
2018-01-17T03:04:08.212Z,5.20
2018-01-17T03:06:36.323Z,5.30
2018-01-17T03:09:04.461Z,5.10
2018-01-17T03:11:33.381Z,5.10
2018-01-17T03:14:02.374Z,5.10
2018-01-17T03:16:31.235Z,5.10
2018-01-17T03:19:00.099Z,5.30
2018-01-17T03:21:28.251Z,4.90
2018-01-17T03:23:56.505Z,5.30
2018-01-17T03:26:25.379Z,5.10
2018-01-17T03:28:54.250Z,5.20
2018-01-17T03:31:22.357Z,5.10
2018-01-17T03:33:50.475Z,5.10
2018-01-17T03:36:18.605Z,4.80
2018-01-17T03:38:47.497Z,4.90
2018-01-17T03:41:15.600Z,5.00
2018-01-17T03:43:43.710Z,5.10
2018-01-17T03:46:12.608Z,5.10
2018-01-17T03:48:41.491Z,5.00
2018-01-17T03:51:10.440Z,5.10
2018-01-17T03:53:38.504Z,5.10
2018-01-17T03:56:06.612Z,5.10
2018-01-17T03:58:34.731Z,5.20
2018-01-17T04:01:02.848Z,5.10
2018-01-17T04:03:30.981Z,5.20
2018-01-17T04:05:59.156Z,5.50
2018-01-17T04:08:27.247Z,5.50
2018-01-17T04:10:55.398Z,5.40
2018-01-17T04:13:24.260Z,5.40
2018-01-17T04:15:53.159Z,5.50
2018-01-17T04:18:22.039Z,5.60
2018-01-17T04:20:50.903Z,5.60
2018-01-17T04:23:19.043Z,5.60
2018-01-17T04:25:47.173Z,5.40
2018-01-17T04:28:15.383Z,5.10
2018-01-17T04:30:44.273Z,5.30
2018-01-17T04:33:12.448Z,5.10
2018-01-17T04:35:41.351Z,4.80
2018-01-17T04:38:09.451Z,4.90
2018-01-17T04:40:37.580Z,4.50
2018-01-17T04:43:05.695Z,4.50
2018-01-17T04:45:33.808Z,4.30
2018-01-17T04:48:02.698Z,3.80
2018-01-17T04:50:31.615Z,3.70
2018-01-17T04:53:00.487Z,3.00
2018-01-17T04:55:29.395Z,2.70
2018-01-17T04:57:58.267Z,2.40
2018-01-17T05:00:27.195Z,2.50
2018-01-17T05:02:55.299Z,2.20
2018-01-17T05:05:23.446Z,2.20
2018-01-17T05:07:51.556Z,2.40
2018-01-17T05:10:19.663Z,2.00
2018-01-17T05:12:47.783Z,2.00
2018-01-17T05:15:15.943Z,1.90
2018-01-17T05:17:44.083Z,2.00
2018-01-17T05:20:12.195Z,2.00
2018-01-17T05:22:40.311Z,2.20
2018-01-17T05:25:09.197Z,2.00
2018-01-17T05:27:38.063Z,2.00
2018-01-17T05:30:06.200Z,1.90
2018-01-17T05:32:34.365Z,2.00
2018-01-17T05:35:03.247Z,2.20
2018-01-17T05:37:31.372Z,2.20
2018-01-17T05:39:59.500Z,2.20
2018-01-17T05:42:28.379Z,2.30
2018-01-17T05:44:56.491Z,2.20
2018-01-17T05:47:24.638Z,2.50
2018-01-17T05:49:53.503Z,2.30
2018-01-17T05:52:22.366Z,2.60
2018-01-17T05:54:50.507Z,2.40
2018-01-17T05:57:18.667Z,2.50
2018-01-17T05:59:47.558Z,2.50
2018-01-17T06:02:15.680Z,2.50
2018-01-17T06:04:43.786Z,2.50
2018-01-17T06:07:12.689Z,2.50
2018-01-17T06:09:40.843Z,2.40
2018-01-17T06:12:09.760Z,2.60
2018-01-17T06:14:38.631Z,2.80
2018-01-17T06:17:07.542Z,2.50
2018-01-17T06:19:35.703Z,2.50
2018-01-17T06:22:03.823Z,2.70
2018-01-17T06:24:31.961Z,2.70
2018-01-17T06:27:00.856Z,2.50
2018-01-17T06:29:29.028Z,2.30
2018-01-17T06:31:57.915Z,2.50
2018-01-17T06:34:26.028Z,2.40
2018-01-17T06:36:54.164Z,2.60
2018-01-17T06:39:22.254Z,2.40
2018-01-17T06:41:50.520Z,2.40
2018-01-17T06:44:18.619Z,2.40
2018-01-17T06:46:46.719Z,2.40
2018-01-17T06:49:14.859Z,2.50
2018-01-17T06:51:42.972Z,2.60
2018-01-17T06:54:11.088Z,2.70
2018-01-17T06:56:39.959Z,2.90
2018-01-17T06:59:08.075Z,2.40
2018-01-17T07:01:36.199Z,2.60
2018-01-17T07:04:05.066Z,2.80
2018-01-17T07:06:33.194Z,2.70
2018-01-17T07:09:01.301Z,2.70
2018-01-17T07:11:29.414Z,2.70
2018-01-17T07:13:57.598Z,2.70
2018-01-17T07:16:26.477Z,2.70
2018-01-17T07:18:54.575Z,3.10
2018-01-17T07:21:22.691Z,2.90
2018-01-17T07:23:50.808Z,3.10
2018-01-17T07:26:18.929Z,3.10
2018-01-17T07:28:47.067Z,3.00
2018-01-17T07:31:15.182Z,2.90
2018-01-17T07:33:43.287Z,3.10
2018-01-17T07:36:11.417Z,3.00
2018-01-17T07:38:39.535Z,2.90
2018-01-17T07:41:07.663Z,2.90
2018-01-17T07:43:35.779Z,2.90
2018-01-17T07:46:04.681Z,2.80
2018-01-17T07:48:33.803Z,2.80
2018-01-17T07:51:01.915Z,3.00
2018-01-17T07:53:30.807Z,2.70
2018-01-17T07:55:59.018Z,2.70
2018-01-17T07:58:27.879Z,2.50
2018-01-17T08:00:56.798Z,2.50
2018-01-17T08:03:24.948Z,2.50
2018-01-17T08:05:53.833Z,2.50
2018-01-17T08:08:22.703Z,2.40
2018-01-17T08:10:50.871Z,2.50
2018-01-17T08:13:18.968Z,2.50
2018-01-17T08:15:47.081Z,2.60
2018-01-17T08:18:15.212Z,2.40
2018-01-17T08:20:43.321Z,2.70
2018-01-17T08:23:11.455Z,2.60
2018-01-17T08:25:39.584Z,2.60
2018-01-17T08:28:07.736Z,2.90
2018-01-17T08:30:35.880Z,2.70
2018-01-17T08:33:03.999Z,2.80
2018-01-17T08:35:32.980Z,2.80
2018-01-17T08:38:01.836Z,3.20
2018-01-17T08:40:30.733Z,3.30
2018-01-17T08:42:59.638Z,3.80
2018-01-17T08:45:28.531Z,4.30
2018-01-17T08:47:56.647Z,4.30
2018-01-17T08:50:24.789Z,4.60
2018-01-17T08:52:53.657Z,3.70
2018-01-17T08:55:22.529Z,3.50
2018-01-17T08:57:50.916Z,3.70
2018-01-17T09:00:19.028Z,3.70
2018-01-17T09:02:47.159Z,3.60
2018-01-17T09:05:15.259Z,3.40
2018-01-17T09:07:43.427Z,3.80
2018-01-17T09:10:11.601Z,4.10
2018-01-17T09:12:39.689Z,4.10
2018-01-17T09:15:07.806Z,4.30
2018-01-17T09:17:36.038Z,4.30
2018-01-17T09:20:04.928Z,4.00
2018-01-17T09:22:33.814Z,3.70
2018-01-17T09:25:01.927Z,3.80
2018-01-17T09:27:30.045Z,3.90
2018-01-17T09:29:58.952Z,3.80
2018-01-17T09:32:27.220Z,3.50
2018-01-17T09:34:56.091Z,3.70
2018-01-17T09:37:24.976Z,3.60
2018-01-17T09:39:53.113Z,3.50
2018-01-17T09:42:21.219Z,3.60
2018-01-17T09:44:49.437Z,3.70
2018-01-17T09:47:17.555Z,3.90
2018-01-17T09:49:45.660Z,3.50
2018-01-17T09:52:14.555Z,3.30
2018-01-17T09:54:43.422Z,3.20
2018-01-17T09:57:11.582Z,3.20
2018-01-17T09:59:39.689Z,2.80
2018-01-17T10:02:08.558Z,2.70
2018-01-17T10:04:38.191Z,2.70
2018-01-17T10:07:07.059Z,2.70
2018-01-17T10:09:35.277Z,2.60
2018-01-17T10:12:03.379Z,2.70
2018-01-17T10:14:31.506Z,3.00
2018-01-17T10:16:59.662Z,2.80
2018-01-17T10:19:27.816Z,3.00
2018-01-17T10:21:55.924Z,3.00
2018-01-17T10:24:24.811Z,4.80
2018-01-17T10:26:53.695Z,5.50
2018-01-17T10:29:22.585Z,6.90
2018-01-17T10:31:50.716Z,6.80
2018-01-17T10:34:18.847Z,7.30
2018-01-17T10:36:47.004Z,6.40
2018-01-17T10:39:15.127Z,5.60
2018-01-17T10:41:43.256Z,4.80
2018-01-17T10:44:12.135Z,4.30
2018-01-17T10:46:41.027Z,4.30
2018-01-17T10:49:09.903Z,4.30
2018-01-17T10:51:38.027Z,4.30
2018-01-17T10:54:06.136Z,4.30
2018-01-17T10:56:34.355Z,4.30
2018-01-17T10:59:03.236Z,4.00
2018-01-17T11:01:32.123Z,4.00
2018-01-17T11:04:01.014Z,3.90
2018-01-17T11:06:29.924Z,4.00
2018-01-17T11:08:58.799Z,3.80
2018-01-17T11:11:27.680Z,3.80
2018-01-17T11:13:55.829Z,3.80
2018-01-17T11:16:23.943Z,3.70
2018-01-17T11:18:52.815Z,3.80
2018-01-17T11:21:21.755Z,3.80
2018-01-17T11:23:49.925Z,3.70
2018-01-17T11:26:18.048Z,3.70
2018-01-17T11:28:46.184Z,3.90
2018-01-17T11:31:14.313Z,4.00
2018-01-17T11:33:43.187Z,3.80
2018-01-17T11:36:11.316Z,3.80
2018-01-17T11:38:39.447Z,3.70
2018-01-17T11:41:08.372Z,3.90
2018-01-17T11:43:36.532Z,3.90
2018-01-17T11:46:04.646Z,3.70
2018-01-17T11:48:32.789Z,3.70
2018-01-17T11:51:01.647Z,4.00
2018-01-17T11:53:29.755Z,4.10
2018-01-17T11:55:57.891Z,4.30
2018-01-17T11:58:26.000Z,4.20
2018-01-17T12:00:54.127Z,3.90
2018-01-17T12:03:22.241Z,4.40
2018-01-17T12:05:50.372Z,4.20
2018-01-17T12:08:18.489Z,4.60
2018-01-17T12:10:46.628Z,4.70
2018-01-17T12:13:14.738Z,4.60
2018-01-17T12:15:42.864Z,4.60
2018-01-17T12:18:10.976Z,4.60
2018-01-17T12:20:39.170Z,4.60
2018-01-17T12:23:07.278Z,4.60
2018-01-17T12:25:35.416Z,4.50
2018-01-17T12:28:03.575Z,4.50
2018-01-17T12:30:32.420Z,4.40
2018-01-17T12:33:00.562Z,4.40
2018-01-17T12:35:28.679Z,4.30
2018-01-17T12:37:57.567Z,4.50
2018-01-17T12:40:25.678Z,4.30
2018-01-17T12:42:53.795Z,4.60
2018-01-17T12:45:22.073Z,5.30
2018-01-17T12:47:50.173Z,5.50
2018-01-17T12:50:19.051Z,5.80
2018-01-17T12:52:47.267Z,6.30
2018-01-17T12:55:15.395Z,6.40
2018-01-17T12:57:43.548Z,6.30
2018-01-17T13:00:11.660Z,6.30
2018-01-17T13:02:40.577Z,5.40
2018-01-17T13:05:09.446Z,5.60
2018-01-17T13:07:38.356Z,5.50
2018-01-17T13:10:06.463Z,5.40
2018-01-17T13:12:34.584Z,5.50
2018-01-17T13:15:03.501Z,5.50
2018-01-17T13:17:32.366Z,5.70
2018-01-17T13:20:01.254Z,5.70
2018-01-17T13:22:30.123Z,6.30
2018-01-17T13:24:58.346Z,6.20
2018-01-17T13:27:27.647Z,7.10
2018-01-17T13:29:55.788Z,7.10
2018-01-17T13:32:24.659Z,6.40
2018-01-17T13:34:52.766Z,6.10
2018-01-17T13:37:21.647Z,5.70
2018-01-17T13:39:50.526Z,5.70
2018-01-17T13:42:18.661Z,5.70
2018-01-17T13:44:46.769Z,5.70
2018-01-17T13:47:14.986Z,5.40
2018-01-17T13:49:43.096Z,5.90
2018-01-17T13:52:11.232Z,6.20
2018-01-17T13:54:40.099Z,6.30
2018-01-17T13:57:08.983Z,6.80
2018-01-17T13:59:37.900Z,6.90
2018-01-17T14:02:06.023Z,6.70
2018-01-17T14:04:34.152Z,6.80
2018-01-17T14:07:02.267Z,6.50
2018-01-17T14:09:30.395Z,6.20
2018-01-17T14:11:59.282Z,6.30
2018-01-17T14:14:27.403Z,6.40
2018-01-17T14:16:55.739Z,7.20
2018-01-17T14:19:24.617Z,7.30
2018-01-17T14:21:52.803Z,7.10
2018-01-17T14:24:21.694Z,6.90
2018-01-17T14:26:50.554Z,6.40
2018-01-17T14:29:19.455Z,6.40
2018-01-17T14:31:48.354Z,6.10
2018-01-17T14:34:17.303Z,6.00
2018-01-17T14:36:45.377Z,6.00
2018-01-17T14:39:13.516Z,6.00
2018-01-17T14:41:41.623Z,5.70
2018-01-17T14:44:09.735Z,5.70
2018-01-17T14:46:38.627Z,5.20
2018-01-17T14:49:07.529Z,5.30
2018-01-17T14:51:35.708Z,5.20
2018-01-17T14:54:04.598Z,5.20
2018-01-17T14:56:32.747Z,5.30
2018-01-17T14:59:01.640Z,5.30
2018-01-17T15:01:30.522Z,5.10
2018-01-17T15:03:59.411Z,5.20
2018-01-17T15:06:28.308Z,5.00
2018-01-17T15:08:57.207Z,5.10
2018-01-17T15:11:26.164Z,5.20
2018-01-17T15:13:54.313Z,5.30
2018-01-17T15:16:22.415Z,5.40
2018-01-17T15:18:50.560Z,5.60
2018-01-17T15:21:18.667Z,5.40
2018-01-17T15:23:46.887Z,5.60
2018-01-17T15:26:15.747Z,5.50
2018-01-17T15:28:44.670Z,5.40
2018-01-17T15:31:13.560Z,5.40
2018-01-17T15:33:41.668Z,5.30
2018-01-17T15:36:10.221Z,5.40
2018-01-17T15:38:38.323Z,5.20
2018-01-17T15:41:06.456Z,5.10
2018-01-17T15:43:34.575Z,5.20
2018-01-17T15:46:02.703Z,5.40
2018-01-17T15:48:30.856Z,5.20
2018-01-17T15:50:59.768Z,5.10
2018-01-17T15:53:27.893Z,5.20
2018-01-17T15:55:55.995Z,5.20
2018-01-17T15:58:24.910Z,5.20
2018-01-17T16:00:53.019Z,5.10
2018-01-17T16:03:21.156Z,5.20
2018-01-17T16:05:49.290Z,5.10
2018-01-17T16:08:17.411Z,5.30
2018-01-17T16:10:45.527Z,5.00
2018-01-17T16:13:13.653Z,5.20
2018-01-17T16:15:41.766Z,5.10
2018-01-17T16:18:09.889Z,5.10
2018-01-17T16:20:38.012Z,5.40
2018-01-17T16:23:06.161Z,5.10
2018-01-17T16:25:34.274Z,5.60
2018-01-17T16:28:02.408Z,5.40
2018-01-17T16:30:30.565Z,5.50
2018-01-17T16:32:58.700Z,5.10
2018-01-17T16:35:26.830Z,4.90
2018-01-17T16:37:54.939Z,4.90
2018-01-17T16:40:23.070Z,4.90
2018-01-17T16:42:51.176Z,4.90
2018-01-17T16:45:19.303Z,4.90
2018-01-17T16:47:47.474Z,5.00
2018-01-17T16:50:15.592Z,5.30
2018-01-17T16:52:43.823Z,5.30
2018-01-17T16:55:11.940Z,5.20
2018-01-17T16:57:40.059Z,5.10
2018-01-17T17:00:08.184Z,5.50
2018-01-17T17:02:36.416Z,5.40
2018-01-17T17:05:05.279Z,5.60
2018-01-17T17:07:34.167Z,5.20
2018-01-17T17:10:02.292Z,5.40
2018-01-17T17:12:30.443Z,5.20
2018-01-17T17:14:58.559Z,5.10
2018-01-17T17:17:26.686Z,5.40
2018-01-17T17:19:55.561Z,5.20
2018-01-17T17:22:24.453Z,5.10
2018-01-17T17:24:53.336Z,5.20
2018-01-17T17:27:22.215Z,5.60
2018-01-17T17:29:50.344Z,5.10
2018-01-17T17:32:18.480Z,5.10
2018-01-17T17:34:47.376Z,5.10
2018-01-17T17:37:16.272Z,5.40
2018-01-17T17:39:44.391Z,5.10
2018-01-17T17:42:12.515Z,5.60
2018-01-17T17:44:41.388Z,5.40
2018-01-17T17:47:10.311Z,5.40
2018-01-17T17:49:38.428Z,5.70
2018-01-17T17:52:06.556Z,5.40
2018-01-17T17:54:34.678Z,5.50
2018-01-17T17:57:02.828Z,5.90
2018-01-17T17:59:30.943Z,5.70
2018-01-17T18:01:59.839Z,5.40
2018-01-17T18:04:28.722Z,5.80
2018-01-17T18:06:56.898Z,5.70
2018-01-17T18:09:25.013Z,5.40
2018-01-17T18:11:53.155Z,5.40
2018-01-17T18:14:22.032Z,5.20
2018-01-17T18:16:50.170Z,5.40
2018-01-17T18:19:18.276Z,5.20
2018-01-17T18:21:46.410Z,5.40
2018-01-17T18:24:14.519Z,5.10
2018-01-17T18:26:42.667Z,5.10
2018-01-17T18:29:10.776Z,5.60
2018-01-17T18:31:39.683Z,5.40
2018-01-17T18:34:07.804Z,5.40
2018-01-17T18:36:35.928Z,5.40
2018-01-17T18:39:04.838Z,5.40
2018-01-17T18:41:32.947Z,5.40
2018-01-17T18:44:01.187Z,5.40
2018-01-17T18:46:29.283Z,5.40
2018-01-17T18:48:57.416Z,5.50
2018-01-17T18:51:26.291Z,5.50
2018-01-17T18:53:55.199Z,5.80
2018-01-17T18:56:24.059Z,5.40
2018-01-17T18:58:52.191Z,5.40
2018-01-17T19:01:20.317Z,5.80
2018-01-17T19:03:48.442Z,5.80
2018-01-17T19:06:16.555Z,5.40
2018-01-17T19:08:44.682Z,5.80
2018-01-17T19:11:12.796Z,5.50
2018-01-17T19:13:40.913Z,5.50
2018-01-17T19:16:09.031Z,5.90
2018-01-17T19:18:37.151Z,5.70
2018-01-17T19:21:05.338Z,5.70
2018-01-17T19:23:33.460Z,5.70
2018-01-17T19:26:01.584Z,5.70
2018-01-17T19:28:29.700Z,5.70
2018-01-17T19:30:57.803Z,5.70
2018-01-17T19:33:26.695Z,5.80
2018-01-17T19:35:55.583Z,5.80
2018-01-17T19:38:24.504Z,6.00
2018-01-17T19:40:52.616Z,5.70
2018-01-17T19:43:20.850Z,5.70
2018-01-17T19:45:49.730Z,5.90
2018-01-17T19:48:17.851Z,5.70
2018-01-17T19:50:45.971Z,5.90
2018-01-17T19:53:14.855Z,5.70
2018-01-17T19:55:43.731Z,5.60
2018-01-17T19:58:11.872Z,5.70
2018-01-17T20:00:39.996Z,5.90
2018-01-17T20:03:08.875Z,5.70
2018-01-17T20:05:37.767Z,5.70
2018-01-17T20:08:05.880Z,5.80
2018-01-17T20:10:34.011Z,5.70
2018-01-17T20:13:02.988Z,5.70
2018-01-17T20:15:31.217Z,5.80
2018-01-17T20:17:59.389Z,5.70
2018-01-17T20:20:27.500Z,5.70
2018-01-17T20:23:01.369Z,6.10
2018-01-17T20:25:29.484Z,6.00
2018-01-17T20:27:57.720Z,6.00
2018-01-17T20:30:25.864Z,6.10
2018-01-17T20:32:54.738Z,6.00
2018-01-17T20:35:22.896Z,6.20
2018-01-17T20:37:51.006Z,6.00
2018-01-17T20:40:19.916Z,6.10
2018-01-17T20:42:48.800Z,6.10
2018-01-17T20:45:16.904Z,6.10
2018-01-17T20:47:45.040Z,6.00
2018-01-17T20:50:13.168Z,6.10
2018-01-17T20:52:41.270Z,6.40
2018-01-17T20:55:10.172Z,6.40
2018-01-17T20:57:38.291Z,6.10
2018-01-17T21:00:06.419Z,6.10
2018-01-17T21:02:35.311Z,6.00
2018-01-17T21:05:04.213Z,6.00
2018-01-17T21:07:32.344Z,6.10
2018-01-17T21:10:00.448Z,6.20
2018-01-17T21:12:29.363Z,6.10
2018-01-17T21:14:57.478Z,6.30
2018-01-17T21:17:25.611Z,6.00
2018-01-17T21:19:53.756Z,6.00
2018-01-17T21:22:22.633Z,6.00
2018-01-17T21:24:51.568Z,6.10
2018-01-17T21:27:19.735Z,6.00
2018-01-17T21:29:47.844Z,6.30
2018-01-17T21:32:15.948Z,6.10
2018-01-17T21:34:44.847Z,6.00
2018-01-17T21:37:13.740Z,6.00
2018-01-17T21:39:42.623Z,6.10
2018-01-17T21:42:17.074Z,6.10
2018-01-17T21:44:50.834Z,6.00
2018-01-17T21:47:18.993Z,5.80
2018-01-17T21:49:47.104Z,5.80
2018-01-17T21:52:16.015Z,5.70
2018-01-17T21:54:44.920Z,6.00
2018-01-17T21:57:13.084Z,5.90
2018-01-17T21:59:41.177Z,5.70
2018-01-17T22:02:09.312Z,6.00
2018-01-17T22:04:38.212Z,5.70
2018-01-17T22:07:06.344Z,5.70
2018-01-17T22:09:34.487Z,5.70
2018-01-17T22:12:02.611Z,5.70
2018-01-17T22:14:31.495Z,5.70
2018-01-17T22:16:59.639Z,5.70
2018-01-17T22:19:27.744Z,5.70
2018-01-17T22:21:56.620Z,5.70
2018-01-17T22:24:24.757Z,5.70
2018-01-17T22:26:52.912Z,5.90
2018-01-17T22:29:21.076Z,5.40
2018-01-17T22:31:49.374Z,5.70
2018-01-17T22:34:17.506Z,5.40
2018-01-17T22:36:45.623Z,5.50
2018-01-17T22:39:13.890Z,5.70
2018-01-17T22:41:42.032Z,5.40
2018-01-17T22:44:10.260Z,5.80
2018-01-17T22:46:38.455Z,5.90
2018-01-17T22:49:06.599Z,5.80
2018-01-17T22:51:34.742Z,5.70
2018-01-17T22:54:03.675Z,5.70
2018-01-17T22:56:31.833Z,5.60
2018-01-17T22:58:59.958Z,5.50
2018-01-17T23:01:28.086Z,5.70
2018-01-17T23:03:56.242Z,5.50
2018-01-17T23:06:25.240Z,5.80
2018-01-17T23:08:54.231Z,5.70
2018-01-17T23:11:22.406Z,5.90
2018-01-17T23:13:51.327Z,5.70
2018-01-17T23:16:19.504Z,5.70
2018-01-17T23:18:47.624Z,5.50
2018-01-17T23:21:16.536Z,5.70
2018-01-17T23:23:45.014Z,5.70
2018-01-17T23:26:13.135Z,5.50
2018-01-17T23:28:41.256Z,6.00
2018-01-17T23:31:09.390Z,5.80
2018-01-17T23:33:37.582Z,5.60
2018-01-17T23:36:06.484Z,5.80
2018-01-17T23:38:35.380Z,5.80
2018-01-17T23:41:03.594Z,5.70
2018-01-17T23:43:31.719Z,5.70
2018-01-17T23:46:00.604Z,5.70
2018-01-17T23:48:29.492Z,5.70
2018-01-17T23:50:58.379Z,5.70
2018-01-17T23:53:27.271Z,5.70
2018-01-17T23:55:56.247Z,5.80
2018-01-17T23:58:24.482Z,5.70
